Time;durP1;ratioP1;P1;durP2;ratioP2;P2;SDS_P1;SDS_P2;PMS_P1;PMS_P2;Temp;Humidity;BMP_temperature;BMP_pressure;BME280_temperature;BME280_humidity;BME280_pressure;Samples;Min_cycle;Max_cycle;Signal;HPM_P1;HPM_P2
2022/11/05 00:10:47;;;;;;;3.67;2.53;;;9.60;81.60;;;;;;5048588;28;20059;-71
2022/11/05 00:18:42;;;;;;;3.30;2.45;;;9.70;81.70;;;;;;5030383;28;20041;-69
2022/11/05 00:25:12;;;;;;;3.58;2.80;;;9.70;81.70;;;;;;5041306;28;20028;-70
2022/11/05 00:26:38;;;;;;;3.25;2.25;;;9.80;81.70;;;;;;5044397;28;20581;-69
2022/11/05 00:29:03;;;;;;;2.95;2.05;;;9.80;81.60;;;;;;5035430;28;20025;-69
2022/11/05 00:31:30;;;;;;;2.72;2.22;;;9.90;81.60;;;;;;5033094;28;20030;-69
2022/11/05 00:33:56;;;;;;;3.35;2.40;;;9.90;81.60;;;;;;5052083;28;20445;-69
2022/11/05 00:36:22;;;;;;;4.88;2.40;;;9.90;81.60;;;;;;5051974;28;20033;-69
2022/11/05 00:38:47;;;;;;;3.55;2.10;;;9.90;81.60;;;;;;5033060;28;20034;-70
2022/11/05 00:41:13;;;;;;;3.65;1.98;;;9.90;81.70;;;;;;5030968;28;20013;-68
2022/11/05 00:46:22;;;;;;;2.92;1.92;;;9.90;81.80;;;;;;5052051;28;20473;-68
2022/11/05 00:51:35;;;;;;;3.20;1.98;;;9.80;81.90;;;;;;5031839;28;20463;-69
2022/11/05 00:54:00;;;;;;;2.60;1.98;;;9.80;81.80;;;;;;5033345;28;20488;-69
2022/11/05 00:56:26;;;;;;;3.55;2.00;;;9.70;81.80;;;;;;5031764;28;20029;-70
2022/11/05 00:58:51;;;;;;;3.35;1.90;;;9.70;81.90;;;;;;5043583;28;20124;-69
2022/11/05 01:01:17;;;;;;;3.10;2.03;;;9.70;81.80;;;;;;5051184;28;20101;-68
2022/11/05 01:03:42;;;;;;;3.13;1.98;;;9.70;81.90;;;;;;5041532;28;20022;-69
2022/11/05 01:06:14;;;;;;;2.45;2.10;;;9.60;81.90;;;;;;5031575;28;20024;-68
2022/11/05 01:08:42;;;;;;;3.40;1.90;;;9.60;82.10;;;;;;5031503;28;20052;-68
2022/11/05 01:11:11;;;;;;;2.58;1.63;;;9.50;82.10;;;;;;5031857;28;20044;-68
2022/11/05 01:13:38;;;;;;;3.08;1.90;;;9.50;82.20;;;;;;5030472;28;20026;-69
2022/11/05 01:16:07;;;;;;;3.38;2.20;;;9.50;82.10;;;;;;5031850;28;20028;-68
2022/11/05 01:18:33;;;;;;;2.40;1.77;;;9.50;82.00;;;;;;5045729;28;20041;-68
2022/11/05 01:20:58;;;;;;;3.03;1.88;;;9.50;81.90;;;;;;5044845;28;20147;-68
2022/11/05 01:23:24;;;;;;;4.15;2.00;;;9.40;81.80;;;;;;5049524;28;20417;-69
2022/11/05 01:25:49;;;;;;;2.97;2.00;;;9.40;81.60;;;;;;5051258;28;20583;-69
2022/11/05 01:28:15;;;;;;;2.30;1.95;;;9.40;81.60;;;;;;5050979;28;20437;-70
2022/11/05 01:30:40;;;;;;;3.85;2.13;;;9.30;81.70;;;;;;5031324;28;20033;-69
2022/11/05 01:33:06;;;;;;;3.08;1.95;;;9.30;81.70;;;;;;5029798;28;20029;-70
2022/11/05 01:35:32;;;;;;;3.22;2.13;;;9.20;81.60;;;;;;5049045;28;20491;-69
2022/11/05 01:37:58;;;;;;;6.30;4.05;;;9.20;81.70;;;;;;5046622;28;20103;-68
2022/11/05 01:40:24;;;;;;;7.35;4.03;;;9.10;81.70;;;;;;5043870;28;20021;-68
2022/11/05 01:42:50;;;;;;;6.82;3.95;;;9.00;81.80;;;;;;5032290;28;20422;-68
2022/11/05 01:45:18;;;;;;;5.28;3.30;;;9.00;82.00;;;;;;5035074;28;20107;-68
2022/11/05 01:48:07;;;;;;;5.68;3.08;;;8.90;82.00;;;;;;5033099;28;20025;-68
2022/11/05 01:50:51;;;;;;;3.90;2.50;;;8.90;82.10;;;;;;5038282;28;20036;-68
2022/11/05 01:53:23;;;;;;;2.30;1.95;;;8.90;82.10;;;;;;5032796;28;20060;-69
2022/11/05 01:55:54;;;;;;;3.28;2.17;;;8.90;82.10;;;;;;5047425;28;20025;-68
2022/11/05 01:58:23;;;;;;;3.35;2.30;;;8.90;82.20;;;;;;5050025;28;20392;-69
2022/11/05 02:00:48;;;;;;;2.63;2.10;;;8.90;82.30;;;;;;5039295;28;20100;-68
2022/11/05 02:03:15;;;;;;;4.85;2.33;;;8.90;82.40;;;;;;5028856;28;20120;-69
2022/11/05 02:05:42;;;;;;;3.08;2.03;;;8.90;82.50;;;;;;5039434;28;20088;-70
2022/11/05 02:08:18;;;;;;;3.22;2.05;;;8.90;82.60;;;;;;5049787;28;20041;-70
2022/11/05 02:10:44;;;;;;;4.20;2.40;;;8.90;82.60;;;;;;5048033;28;20033;-70
2022/11/05 02:13:10;;;;;;;5.00;2.20;;;8.90;82.70;;;;;;5049875;28;20057;-68
2022/11/05 02:15:47;;;;;;;4.45;2.20;;;8.90;82.80;;;;;;5042927;28;20089;-69
2022/11/05 02:18:25;;;;;;;3.33;1.88;;;8.90;82.90;;;;;;5029667;28;20098;-69
2022/11/05 02:21:12;;;;;;;3.65;2.03;;;8.90;82.80;;;;;;5036612;28;20116;-69
2022/11/05 02:24:04;;;;;;;3.67;1.95;;;8.90;83.00;;;;;;5049495;28;20067;-71
2022/11/05 02:26:44;;;;;;;3.10;2.05;;;9.00;83.10;;;;;;5037904;28;20073;-68
2022/11/05 02:29:36;;;;;;;3.97;2.30;;;8.90;83.00;;;;;;5028775;28;20037;-70
2022/11/05 02:32:13;;;;;;;3.58;2.33;;;8.90;83.10;;;;;;5030924;28;20060;-69
2022/11/05 02:35:09;;;;;;;3.22;2.50;;;8.90;83.10;;;;;;5030878;28;20026;-68
2022/11/05 02:37:51;;;;;;;4.32;2.25;;;8.90;83.30;;;;;;5031162;28;20030;-69
2022/11/05 02:40:21;;;;;;;3.72;2.42;;;8.90;83.30;;;;;;5039503;28;20033;-69
2022/11/05 02:42:46;;;;;;;5.57;2.20;;;8.80;83.50;;;;;;5041687;28;20614;-70
2022/11/05 02:45:50;;;;;;;2.70;2.30;;;8.80;83.50;;;;;;5049868;28;20020;-68
2022/11/05 02:48:24;;;;;;;3.53;2.30;;;8.80;83.70;;;;;;5029980;28;20073;-68
2022/11/05 02:51:04;;;;;;;4.35;2.60;;;8.80;83.80;;;;;;5030849;28;20025;-68
2022/11/05 02:53:49;;;;;;;4.10;2.10;;;8.80;83.90;;;;;;5059144;28;20048;-68
2022/11/05 02:56:39;;;;;;;5.25;2.88;;;8.80;83.90;;;;;;5041896;28;20107;-69
2022/11/05 02:59:04;;;;;;;5.82;2.90;;;8.80;84.00;;;;;;5049585;28;20542;-71
2022/11/05 03:01:30;;;;;;;3.35;2.80;;;8.80;84.00;;;;;;5049395;28;20033;-71
2022/11/05 03:04:02;;;;;;;5.18;2.80;;;8.80;84.00;;;;;;5048147;28;20078;-72
2022/11/05 03:06:57;;;;;;;4.75;2.85;;;8.80;84.00;;;;;;5047868;28;20017;-71
2022/11/05 03:09:41;;;;;;;3.75;2.60;;;8.80;84.00;;;;;;5034857;28;20048;-69
2022/11/05 03:12:41;;;;;;;4.40;3.00;;;8.70;83.80;;;;;;5043793;28;20029;-69
2022/11/05 03:15:32;;;;;;;4.50;3.03;;;8.80;84.00;;;;;;5048738;28;20025;-69
2022/11/05 03:18:17;;;;;;;4.45;3.00;;;8.70;83.80;;;;;;5037863;28;20520;-69
2022/11/05 03:21:03;;;;;;;5.95;3.90;;;8.70;83.90;;;;;;5044632;28;20020;-68
2022/11/05 03:23:45;;;;;;;3.92;3.20;;;8.70;84.10;;;;;;5046356;28;20384;-69
2022/11/05 03:26:24;;;;;;;3.67;2.95;;;8.60;84.10;;;;;;5049356;28;20065;-69
2022/11/05 03:28:55;;;;;;;4.95;3.75;;;8.60;84.20;;;;;;5046922;28;20025;-70
2022/11/05 03:31:23;;;;;;;4.68;3.55;;;8.60;84.20;;;;;;5048295;28;20096;-70
2022/11/05 03:33:52;;;;;;;5.40;3.30;;;8.60;84.20;;;;;;5035350;28;20029;-69
2022/11/05 03:36:25;;;;;;;5.40;3.67;;;8.50;84.40;;;;;;5029123;28;20036;-69
2022/11/05 03:38:53;;;;;;;3.28;2.50;;;8.50;84.50;;;;;;5039956;28;20528;-69
2022/11/05 03:41:20;;;;;;;4.20;2.90;;;8.50;84.40;;;;;;5047174;28;20025;-68
2022/11/05 03:43:50;;;;;;;3.67;2.80;;;8.50;84.40;;;;;;5038117;28;20392;-69
2022/11/05 03:46:25;;;;;;;3.88;2.60;;;8.50;84.60;;;;;;5028688;28;20025;-70
2022/11/05 03:48:54;;;;;;;6.10;2.80;;;8.40;84.50;;;;;;5037982;28;20107;-70
2022/11/05 03:51:47;;;;;;;3.10;2.45;;;8.50;84.60;;;;;;5047337;28;20021;-68
2022/11/05 03:54:14;;;;;;;3.65;2.60;;;8.40;84.60;;;;;;5037213;28;20022;-70
2022/11/05 03:57:07;;;;;;;8.50;5.05;;;8.40;84.70;;;;;;5027622;28;20035;-70
2022/11/05 03:59:41;;;;;;;5.30;3.22;;;8.40;84.80;;;;;;5032832;28;20378;-68
2022/11/05 04:02:06;;;;;;;5.30;3.30;;;8.40;84.80;;;;;;5028992;28;20057;-71
2022/11/05 04:04:32;;;;;;;5.40;3.85;;;8.40;84.90;;;;;;5030361;28;20032;-70
2022/11/05 04:15:10;;;;;;;3.90;2.55;;;8.30;84.90;;;;;;5039130;28;20460;-69
2022/11/05 04:17:35;;;;;;;3.67;2.80;;;8.40;84.90;;;;;;5032963;28;20112;-69
2022/11/05 04:25:29;;;;;;;4.32;2.60;;;8.30;84.70;;;;;;5051481;28;20509;-69
2022/11/05 04:27:59;;;;;;;5.07;3.10;;;8.30;84.70;;;;;;5050910;28;20021;-69
2022/11/05 04:30:25;;;;;;;5.75;2.90;;;8.20;84.90;;;;;;5039319;28;20128;-69
2022/11/05 04:32:55;;;;;;;4.65;3.03;;;8.20;85.10;;;;;;5032650;28;20104;-69
2022/11/05 04:35:21;;;;;;;3.85;2.70;;;8.20;85.20;;;;;;5033078;28;20075;-69
2022/11/05 04:37:47;;;;;;;3.60;2.60;;;8.20;85.30;;;;;;5032102;28;20021;-68
2022/11/05 04:40:12;;;;;;;3.85;2.50;;;8.20;85.30;;;;;;5038484;28;20025;-69
2022/11/05 04:42:38;;;;;;;6.20;2.92;;;8.20;85.40;;;;;;5051876;28;20369;-68
2022/11/05 04:45:04;;;;;;;4.07;3.20;;;8.20;85.30;;;;;;5050988;28;20021;-68
2022/11/05 04:47:30;;;;;;;4.43;2.78;;;8.20;85.30;;;;;;5052421;28;20032;-68
2022/11/05 04:49:55;;;;;;;4.78;3.25;;;8.30;85.30;;;;;;5050412;28;20103;-69
2022/11/05 04:52:21;;;;;;;4.03;3.05;;;8.30;85.30;;;;;;5032552;28;20453;-69
2022/11/05 04:54:46;;;;;;;4.95;2.92;;;8.30;86.00;;;;;;5032001;28;20033;-69
2022/11/05 04:57:12;;;;;;;4.50;3.28;;;8.20;85.40;;;;;;5050339;28;20032;-69
2022/11/05 04:59:37;;;;;;;5.75;3.28;;;8.20;85.60;;;;;;5050018;28;20025;-69
2022/11/05 05:02:03;;;;;;;5.18;3.00;;;8.20;85.70;;;;;;5045273;28;20017;-70
2022/11/05 05:04:29;;;;;;;5.47;3.25;;;8.20;86.20;;;;;;5032122;28;20026;-69
2022/11/05 05:06:54;;;;;;;4.50;3.38;;;8.20;85.50;;;;;;5044893;28;20040;-69
2022/11/05 05:09:20;;;;;;;4.93;3.20;;;8.20;85.50;;;;;;5033639;28;20033;-70
2022/11/05 05:11:45;;;;;;;5.00;3.25;;;8.20;85.40;;;;;;5033701;28;20032;-70
2022/11/05 05:14:11;;;;;;;7.65;3.40;;;8.20;85.30;;;;;;5035156;28;20555;-70
2022/11/05 05:16:37;;;;;;;4.75;3.20;;;8.20;85.30;;;;;;5051899;28;20026;-68
2022/11/05 05:19:02;;;;;;;3.30;3.00;;;8.10;85.20;;;;;;5030556;28;20053;-69
2022/11/05 05:21:41;;;;;;;4.05;3.10;;;8.10;85.20;;;;;;5047230;28;20025;-71
2022/11/05 05:24:09;;;;;;;5.30;2.72;;;8.10;85.10;;;;;;5028440;28;20060;-69
2022/11/05 05:26:41;;;;;;;6.80;4.05;;;8.10;85.30;;;;;;5029549;28;20226;-69
2022/11/05 05:29:07;;;;;;;5.90;3.75;;;8.00;85.30;;;;;;5029893;28;20037;-69
2022/11/05 05:31:33;;;;;;;5.43;3.65;;;8.00;85.30;;;;;;5030699;28;20117;-67
2022/11/05 05:33:59;;;;;;;5.18;3.80;;;8.00;85.30;;;;;;5030122;28;20391;-68
2022/11/05 05:36:25;;;;;;;4.93;3.85;;;8.00;85.20;;;;;;5033391;28;20029;-68
2022/11/05 05:38:51;;;;;;;7.63;4.20;;;8.00;85.30;;;;;;5049792;28;20120;-69
2022/11/05 05:41:17;;;;;;;5.22;4.00;;;7.90;85.30;;;;;;5049139;28;20105;-68
2022/11/05 05:43:42;;;;;;;7.10;4.43;;;7.90;85.20;;;;;;5029868;28;20104;-68
2022/11/05 05:46:11;;;;;;;5.63;3.95;;;7.80;85.30;;;;;;5030828;28;20026;-69
2022/11/05 05:48:37;;;;;;;5.85;4.05;;;7.80;85.40;;;;;;5029998;28;20053;-69
2022/11/05 05:51:05;;;;;;;5.53;4.07;;;7.80;85.40;;;;;;5029569;28;20620;-69
2022/11/05 05:53:31;;;;;;;5.75;4.07;;;7.70;85.40;;;;;;5032920;28;20033;-70
2022/11/05 05:55:57;;;;;;;4.97;3.85;;;7.70;85.50;;;;;;5040158;28;20033;-70
2022/11/05 05:58:28;;;;;;;5.45;3.88;;;7.70;85.50;;;;;;5038061;28;20026;-70
2022/11/05 06:00:54;;;;;;;8.27;4.20;;;7.70;85.50;;;;;;5032113;28;20028;-69
2022/11/05 06:03:19;;;;;;;5.53;4.07;;;7.70;85.60;;;;;;5032012;28;20021;-69
2022/11/05 06:05:45;;;;;;;7.18;4.45;;;7.70;85.60;;;;;;5030653;28;20054;-68
2022/11/05 06:08:11;;;;;;;6.38;4.50;;;7.70;85.60;;;;;;5035252;28;20522;-68
2022/11/05 06:10:36;;;;;;;6.55;4.72;;;7.60;85.60;;;;;;5049610;28;20044;-69
2022/11/05 06:13:02;;;;;;;6.38;4.47;;;7.60;85.60;;;;;;5033711;28;20085;-68
2022/11/05 06:15:28;;;;;;;5.53;4.40;;;7.60;85.70;;;;;;5050001;28;20659;-67
2022/11/05 06:17:53;;;;;;;7.32;4.43;;;7.60;85.80;;;;;;5049086;28;20032;-68
2022/11/05 06:20:19;;;;;;;5.10;3.55;;;7.60;85.80;;;;;;5029020;28;20029;-69
2022/11/05 06:22:54;;;;;;;6.32;4.10;;;7.60;85.90;;;;;;5032787;28;20160;-69
2022/11/05 06:25:19;;;;;;;6.90;5.03;;;7.60;85.80;;;;;;5030302;28;20575;-69
2022/11/05 06:27:45;;;;;;;5.05;3.80;;;7.70;85.90;;;;;;5030353;28;20035;-69
2022/11/05 06:30:10;;;;;;;5.57;4.43;;;7.60;85.80;;;;;;5047475;28;20050;-69
2022/11/05 06:32:36;;;;;;;5.03;3.88;;;7.60;85.90;;;;;;5041578;28;20035;-69
2022/11/05 06:35:01;;;;;;;7.18;4.18;;;7.60;85.90;;;;;;5048615;28;20479;-69
2022/11/05 06:37:27;;;;;;;8.63;4.90;;;7.60;85.80;;;;;;5049767;28;20021;-69
2022/11/05 06:39:53;;;;;;;7.63;4.80;;;7.60;85.80;;;;;;5049369;28;20052;-69
2022/11/05 06:42:18;;;;;;;6.40;4.28;;;7.60;85.80;;;;;;5048943;28;20403;-69
2022/11/05 06:44:44;;;;;;;8.73;4.78;;;7.60;85.80;;;;;;5038699;28;20030;-70
2022/11/05 06:47:10;;;;;;;6.40;4.20;;;7.50;85.70;;;;;;5029810;28;20032;-69
2022/11/05 06:49:36;;;;;;;8.80;4.57;;;7.60;85.80;;;;;;5030505;28;20025;-69
2022/11/05 06:52:02;;;;;;;4.47;3.60;;;7.60;85.70;;;;;;5040777;28;20515;-68
2022/11/05 06:54:27;;;;;;;7.18;4.35;;;7.60;85.70;;;;;;5049044;28;20545;-68
2022/11/05 06:56:53;;;;;;;5.65;4.40;;;7.60;85.70;;;;;;5048328;28;20432;-69
2022/11/05 06:59:19;;;;;;;6.75;4.32;;;7.60;85.80;;;;;;5043080;28;20476;-68
2022/11/05 07:01:45;;;;;;;7.22;3.92;;;7.60;85.80;;;;;;5040631;28;20086;-68
2022/11/05 07:04:11;;;;;;;6.28;4.38;;;7.60;85.80;;;;;;5049813;28;20502;-69
2022/11/05 07:06:37;;;;;;;5.38;4.15;;;7.60;85.80;;;;;;5043735;28;20022;-69
2022/11/05 07:09:03;;;;;;;8.40;4.45;;;7.60;85.70;;;;;;5027886;28;20116;-68
2022/11/05 07:11:28;;;;;;;6.25;4.47;;;7.70;85.70;;;;;;5033381;28;20576;-68
2022/11/05 07:13:54;;;;;;;7.35;4.80;;;7.70;85.70;;;;;;5029559;28;20205;-69
2022/11/05 07:16:20;;;;;;;7.18;4.70;;;7.70;85.60;;;;;;5028963;28;20028;-69
2022/11/05 07:18:45;;;;;;;5.82;4.10;;;7.70;85.60;;;;;;5048243;28;20407;-70
2022/11/05 07:21:11;;;;;;;6.45;4.72;;;7.80;85.60;;;;;;5042276;28;20757;-69
2022/11/05 07:23:36;;;;;;;6.43;4.10;;;7.80;85.60;;;;;;5046897;28;20017;-69
2022/11/05 07:26:02;;;;;;;7.53;4.82;;;7.80;85.60;;;;;;5049052;28;20017;-70
2022/11/05 07:28:27;;;;;;;7.88;4.90;;;7.80;85.60;;;;;;5046844;28;20391;-69
2022/11/05 07:30:53;;;;;;;8.30;5.60;;;7.90;85.60;;;;;;5046977;28;20025;-69
2022/11/05 07:33:18;;;;;;;9.52;5.60;;;7.90;85.60;;;;;;5034368;28;20033;-69
2022/11/05 07:35:44;;;;;;;9.10;5.93;;;7.90;85.60;;;;;;5027432;28;20029;-70
2022/11/05 07:38:10;;;;;;;6.97;5.38;;;7.90;85.60;;;;;;5038969;28;20108;-70
2022/11/05 07:40:35;;;;;;;9.57;6.07;;;8.00;85.60;;;;;;5047128;28;20025;-70
2022/11/05 07:43:01;;;;;;;8.88;6.03;;;8.00;85.60;;;;;;5037450;28;20103;-70
2022/11/05 07:45:29;;;;;;;7.07;5.55;;;8.00;85.50;;;;;;5047063;28;20025;-70
2022/11/05 07:47:57;;;;;;;8.27;5.50;;;8.00;85.40;;;;;;5047130;28;20037;-70
2022/11/05 07:50:25;;;;;;;8.48;6.35;;;8.10;85.40;;;;;;5047695;28;20139;-69
2022/11/05 07:52:51;;;;;;;8.38;6.03;;;8.10;85.50;;;;;;5035995;28;20036;-69
2022/11/05 07:55:18;;;;;;;6.72;5.32;;;8.10;85.50;;;;;;5049309;28;20021;-69
2022/11/05 07:57:48;;;;;;;8.88;5.85;;;8.20;85.40;;;;;;5045323;28;20037;-68
2022/11/05 08:00:18;;;;;;;9.65;6.28;;;8.20;85.30;;;;;;5040407;28;20033;-68
2022/11/05 08:02:54;;;;;;;7.22;5.82;;;8.20;85.30;;;;;;5042260;28;20371;-69
2022/11/05 08:05:21;;;;;;;8.68;6.30;;;8.20;85.30;;;;;;5044561;28;20505;-68
2022/11/05 08:07:48;;;;;;;10.13;6.38;;;8.20;85.20;;;;;;5042830;28;20032;-70
2022/11/05 08:10:16;;;;;;;8.40;6.13;;;8.30;85.30;;;;;;5044935;28;20051;-69
2022/11/05 08:12:41;;;;;;;7.68;5.90;;;8.30;85.20;;;;;;5041211;28;20032;-71
2022/11/05 08:15:08;;;;;;;10.05;6.40;;;8.40;85.20;;;;;;5047286;28;20383;-69
2022/11/05 08:17:34;;;;;;;8.48;6.68;;;8.40;85.20;;;;;;5048303;28;20025;-69
2022/11/05 08:20:00;;;;;;;9.38;6.72;;;8.40;85.10;;;;;;5043015;28;20117;-68
2022/11/05 08:22:25;;;;;;;8.65;7.50;;;8.40;85.00;;;;;;5041479;28;20112;-68
2022/11/05 08:24:51;;;;;;;11.55;7.05;;;8.50;85.00;;;;;;5047312;28;20028;-69
2022/11/05 08:27:16;;;;;;;11.57;7.68;;;8.50;85.00;;;;;;5036422;28;20029;-71
2022/11/05 08:29:42;;;;;;;8.55;6.85;;;8.50;85.00;;;;;;5041356;28;20092;-69
2022/11/05 08:32:07;;;;;;;9.05;6.50;;;8.50;85.00;;;;;;5043731;28;20096;-70
2022/11/05 08:34:33;;;;;;;8.77;6.65;;;8.50;85.00;;;;;;5039449;28;20534;-69
2022/11/05 08:37:02;;;;;;;7.93;6.35;;;8.60;85.00;;;;;;5045005;28;20029;-70
2022/11/05 08:39:27;;;;;;;9.60;6.88;;;8.60;85.40;;;;;;5043949;28;20032;-69
2022/11/05 08:41:53;;;;;;;9.15;7.18;;;8.70;84.80;;;;;;5044327;28;20017;-69
2022/11/05 08:44:18;;;;;;;8.60;7.18;;;8.70;84.80;;;;;;5044889;28;20025;-69
2022/11/05 08:46:44;;;;;;;9.38;6.88;;;8.80;84.80;;;;;;5041802;28;20048;-68
2022/11/05 08:49:10;;;;;;;7.25;5.95;;;8.80;84.80;;;;;;5041648;28;20029;-68
2022/11/05 08:51:35;;;;;;;7.78;6.65;;;8.90;84.70;;;;;;5044321;28;20041;-68
2022/11/05 08:54:01;;;;;;;12.15;8.23;;;9.00;84.60;;;;;;5039361;28;20546;-69
2022/11/05 08:56:26;;;;;;;9.23;7.50;;;9.00;85.20;;;;;;5046335;28;20021;-68
2022/11/05 08:58:52;;;;;;;9.85;7.28;;;9.00;84.60;;;;;;5047093;28;20118;-68
2022/11/05 09:01:18;;;;;;;9.98;7.05;;;9.00;84.60;;;;;;5044112;28;20020;-69
2022/11/05 09:03:43;;;;;;;9.00;6.20;;;9.10;84.60;;;;;;5046785;28;20099;-68
2022/11/05 09:06:09;;;;;;;10.20;6.93;;;9.10;84.50;;;;;;5045342;28;20480;-69
2022/11/05 09:08:34;;;;;;;9.90;6.93;;;9.20;84.50;;;;;;5043095;28;20072;-69
2022/11/05 09:11:00;;;;;;;7.30;5.80;;;9.30;84.40;;;;;;5045861;28;20444;-68
2022/11/05 09:13:26;;;;;;;9.13;6.93;;;9.30;84.30;;;;;;5042411;28;20570;-69
2022/11/05 09:15:52;;;;;;;13.32;8.10;;;9.30;84.10;;;;;;5046499;28;20029;-69
2022/11/05 09:18:18;;;;;;;12.13;8.00;;;9.40;84.10;;;;;;5039468;28;20043;-68
2022/11/05 09:20:45;;;;;;;9.65;7.10;;;9.40;84.80;;;;;;5041519;28;20104;-68
2022/11/05 09:23:13;;;;;;;11.27;7.57;;;9.40;84.20;;;;;;5041857;28;20196;-68
2022/11/05 09:25:39;;;;;;;11.07;7.25;;;9.50;84.10;;;;;;5044438;28;20041;-69
2022/11/05 09:28:20;;;;;;;10.77;7.20;;;9.50;84.00;;;;;;5042822;28;20108;-68
2022/11/05 09:30:48;;;;;;;9.25;7.30;;;9.60;84.00;;;;;;5041613;28;20057;-70
2022/11/05 09:33:14;;;;;;;11.93;7.30;;;9.60;83.90;;;;;;5044322;28;20029;-70
2022/11/05 09:35:41;;;;;;;8.52;6.65;;;9.70;83.80;;;;;;5042640;28;20044;-69
2022/11/05 09:38:07;;;;;;;9.00;7.05;;;9.80;83.80;;;;;;5044462;28;20033;-69
2022/11/05 09:40:41;;;;;;;9.55;7.72;;;9.80;83.60;;;;;;5042084;28;20031;-69
2022/11/05 09:43:15;;;;;;;10.52;7.18;;;9.90;83.60;;;;;;5044268;28;20047;-68
2022/11/05 09:45:42;;;;;;;10.70;7.13;;;10.00;83.60;;;;;;5044339;28;20529;-70
2022/11/05 09:48:14;;;;;;;10.90;7.85;;;10.00;83.50;;;;;;5046102;28;20024;-70
2022/11/05 09:50:44;;;;;;;9.68;6.65;;;10.10;83.40;;;;;;5043111;28;20510;-70
2022/11/05 09:53:16;;;;;;;8.70;6.47;;;10.10;83.40;;;;;;5043015;28;20114;-69
2022/11/05 09:55:46;;;;;;;10.40;7.13;;;10.20;83.40;;;;;;5043024;28;20018;-69
2022/11/05 09:58:18;;;;;;;9.07;6.97;;;10.30;83.40;;;;;;5038049;28;20032;-70
2022/11/05 10:00:47;;;;;;;8.82;6.45;;;10.40;83.30;;;;;;5040463;28;20506;-69
2022/11/05 10:03:17;;;;;;;10.35;6.82;;;10.40;83.10;;;;;;5046112;28;20025;-71
2022/11/05 10:05:44;;;;;;;9.02;6.25;;;10.50;82.90;;;;;;5040356;28;20446;-69
2022/11/05 10:08:17;;;;;;;8.88;6.90;;;10.50;82.70;;;;;;5043580;28;20059;-69
2022/11/05 10:11:00;;;;;;;9.00;6.20;;;10.60;82.70;;;;;;5042736;28;20108;-70
2022/11/05 10:13:34;;;;;;;;;;;10.70;82.60;;;;;;5043316;28;20273;-69
2022/11/05 10:16:20;;;;;;;9.82;6.40;;;10.70;82.40;;;;;;5046474;28;20371;-69
2022/11/05 10:18:57;;;;;;;9.52;6.53;;;10.80;82.20;;;;;;5043233;28;20033;-69
2022/11/05 10:21:23;;;;;;;7.53;6.30;;;10.90;82.00;;;;;;5044861;28;20024;-70
2022/11/05 10:23:50;;;;;;;11.13;7.07;;;10.90;81.80;;;;;;5046845;28;20071;-70
2022/11/05 10:26:22;;;;;;;9.13;6.55;;;11.00;81.50;;;;;;5045696;28;20096;-70
2022/11/05 10:28:48;;;;;;;;;;;11.10;81.30;;;;;;5042224;28;20021;-69
2022/11/05 10:31:19;;;;;;;7.18;5.05;;;11.20;81.20;;;;;;5045121;28;20391;-71
2022/11/05 10:33:59;;;;;;;9.38;6.03;;;11.30;81.10;;;;;;5047063;28;20017;-70
2022/11/05 10:36:28;;;;;;;8.35;6.15;;;11.50;80.90;;;;;;5041916;28;20087;-70
2022/11/05 10:38:59;;;;;;;9.73;6.53;;;11.60;80.40;;;;;;5039079;28;20082;-69
2022/11/05 10:41:51;;;;;;;10.25;6.82;;;11.60;79.80;;;;;;5045942;28;20064;-70
2022/11/05 10:44:26;;;;;;;8.23;5.70;;;11.70;79.60;;;;;;5045535;28;20078;-68
2022/11/05 10:47:28;;;;;;;9.48;6.78;;;11.80;79.30;;;;;;5043480;28;20035;-69
2022/11/05 10:50:01;;;;;;;7.80;5.45;;;11.90;79.00;;;;;;5045245;28;20735;-70
2022/11/05 10:52:41;;;;;;;7.65;5.30;;;11.90;78.90;;;;;;5042370;28;20451;-70
2022/11/05 10:55:17;;;;;;;7.78;5.45;;;12.00;78.80;;;;;;5045504;28;20407;-69
2022/11/05 10:57:43;;;;;;;7.30;4.90;;;12.00;78.80;;;;;;5037902;28;20025;-71
2022/11/05 11:00:17;;;;;;;7.68;6.00;;;12.10;78.90;;;;;;5044485;28;20032;-70
2022/11/05 11:02:47;;;;;;;6.97;5.72;;;12.10;78.60;;;;;;5042927;28;20103;-69
2022/11/05 11:05:23;;;;;;;8.20;5.57;;;12.20;78.60;;;;;;5042613;28;20029;-69
2022/11/05 11:08:08;;;;;;;8.40;5.88;;;12.20;78.40;;;;;;5043278;28;20104;-69
2022/11/05 11:10:47;;;;;;;8.32;5.90;;;12.20;78.30;;;;;;5042346;28;20705;-68
2022/11/05 11:13:25;;;;;;;7.82;5.90;;;12.20;78.10;;;;;;5046333;28;20025;-70
2022/11/05 11:15:51;;;;;;;11.52;6.07;;;12.20;77.80;;;;;;5045332;28;20031;-71
2022/11/05 11:18:29;;;;;;;8.57;6.00;;;12.20;77.90;;;;;;5042836;28;20090;-70
2022/11/05 11:21:14;;;;;;;9.43;5.43;;;12.30;77.90;;;;;;5042477;28;20021;-69
2022/11/05 11:23:41;;;;;;;8.20;6.05;;;12.30;77.90;;;;;;5043023;28;20017;-69
2022/11/05 11:26:09;;;;;;;10.13;6.13;;;12.30;77.70;;;;;;5044845;28;20497;-70
2022/11/05 11:28:42;;;;;;;8.43;5.88;;;12.20;77.00;;;;;;5044835;28;20033;-70
2022/11/05 11:31:12;;;;;;;9.55;5.10;;;12.20;76.90;;;;;;5042930;28;20120;-70
2022/11/05 11:33:40;;;;;;;7.57;5.50;;;12.20;76.90;;;;;;5045462;28;20029;-70
2022/11/05 11:36:08;;;;;;;9.82;5.97;;;12.20;76.80;;;;;;5041805;28;20049;-69
2022/11/05 11:38:35;;;;;;;6.10;4.38;;;12.20;76.70;;;;;;5043803;28;20035;-69
2022/11/05 11:41:10;;;;;;;7.72;4.53;;;12.30;76.80;;;;;;5045853;28;20028;-70
2022/11/05 11:43:39;;;;;;;9.30;5.45;;;12.40;76.70;;;;;;5044293;28;20063;-69
2022/11/05 11:46:18;;;;;;;8.48;5.28;;;12.40;76.50;;;;;;5045483;28;20558;-70
2022/11/05 11:48:46;;;;;;;10.52;4.80;;;12.40;76.30;;;;;;5044336;28;20503;-70
2022/11/05 11:51:39;;;;;;;7.72;5.20;;;12.40;76.20;;;;;;5045687;28;20029;-71
2022/11/05 11:54:18;;;;;;;7.57;4.55;;;12.40;76.10;;;;;;5039976;28;20395;-69
2022/11/05 11:56:45;;;;;;;7.55;4.82;;;12.40;75.80;;;;;;5043880;28;20021;-69
2022/11/05 11:59:28;;;;;;;7.47;4.80;;;12.40;75.80;;;;;;5041425;28;20052;-69
2022/11/05 12:02:32;;;;;;;5.25;4.30;;;12.40;75.70;;;;;;5043638;28;20017;-69
2022/11/05 12:05:16;;;;;;;6.00;4.28;;;12.40;75.50;;;;;;5021062;28;20947;-69
2022/11/05 12:07:56;;;;;;;8.27;5.30;;;12.50;75.60;;;;;;5039793;28;20045;-70
2022/11/05 12:10:38;;;;;;;5.47;4.13;;;12.40;75.20;;;;;;5038182;28;20087;-70
2022/11/05 12:13:19;;;;;;;8.82;5.50;;;12.40;75.40;;;;;;5043886;28;20040;-70
2022/11/05 12:16:11;;;;;;;7.18;4.90;;;12.50;75.20;;;;;;5044216;28;20013;-70
2022/11/05 12:19:18;;;;;;;10.03;5.23;;;12.40;75.10;;;;;;5038336;28;20646;-70
2022/11/05 12:22:12;;;;;;;5.40;4.45;;;12.30;75.10;;;;;;5042443;28;20321;-69
2022/11/05 12:25:13;;;;;;;7.45;4.82;;;12.30;75.50;;;;;;5040888;28;20025;-69
2022/11/05 12:27:39;;;;;;;7.32;5.05;;;12.30;75.50;;;;;;4982824;28;20029;-70
2022/11/05 12:30:14;;;;;;;7.40;4.85;;;12.30;75.60;;;;;;5037406;28;20044;-68
2022/11/05 12:32:46;;;;;;;5.22;3.95;;;12.30;75.80;;;;;;5047548;28;20392;-69
2022/11/05 12:35:40;;;;;;;6.28;4.38;;;12.30;75.90;;;;;;5046990;28;20052;-69
2022/11/05 12:38:57;;;;;;;7.05;4.20;;;12.40;75.90;;;;;;5045829;28;20075;-69
2022/11/05 12:42:00;;;;;;;9.18;4.72;;;12.30;75.80;;;;;;5038866;28;20534;-69
2022/11/05 12:44:33;;;;;;;7.10;5.03;;;12.40;75.60;;;;;;5046741;28;20025;-69
2022/11/05 12:47:27;;;;;;;7.18;5.05;;;12.30;75.40;;;;;;5049293;28;20021;-69
2022/11/05 12:50:23;;;;;;;10.10;7.07;;;12.30;75.30;;;;;;5043564;28;20051;-69
2022/11/05 12:53:12;;;;;;;26.48;20.30;;;12.30;75.40;;;;;;5043100;28;20046;-69
2022/11/05 12:55:40;;;;;;;84.78;47.92;;;12.30;75.30;;;;;;5043527;28;20682;-69
2022/11/05 12:58:15;;;;;;;45.28;27.25;;;12.40;75.40;;;;;;5046751;28;20033;-69
2022/11/05 13:00:44;;;;;;;27.48;18.67;;;12.40;75.30;;;;;;5042456;28;20021;-69
2022/11/05 13:03:21;;;;;;;51.45;37.58;;;12.40;75.30;;;;;;5039281;28;20074;-69
2022/11/05 13:06:03;;;;;;;27.52;19.10;;;12.40;75.20;;;;;;5043818;28;20044;-69
2022/11/05 13:08:38;;;;;;;22.73;18.17;;;12.40;75.20;;;;;;5045298;28;20074;-71
2022/11/05 13:11:48;;;;;;;35.72;25.80;;;12.40;75.10;;;;;;5043831;28;20025;-70
2022/11/05 13:14:21;;;;;;;17.05;10.50;;;12.30;75.20;;;;;;5045230;28;20064;-70
2022/11/05 13:17:01;;;;;;;36.03;24.65;;;12.40;75.20;;;;;;5042348;28;20411;-69
2022/11/05 13:19:39;;;;;;;16.17;11.05;;;12.40;75.30;;;;;;5046560;28;20017;-69
2022/11/05 13:22:26;;;;;;;11.45;10.10;;;12.50;75.10;;;;;;5048813;28;20025;-69
2022/11/05 13:25:11;;;;;;;11.40;7.68;;;12.50;75.20;;;;;;5045626;28;20036;-69
2022/11/05 13:27:51;;;;;;;11.85;10.18;;;12.50;75.10;;;;;;5047939;28;20025;-69
2022/11/05 13:30:23;;;;;;;9.27;7.40;;;12.50;75.70;;;;;;5044119;28;20040;-69
2022/11/05 13:33:01;;;;;;;10.98;7.47;;;12.50;74.90;;;;;;5044845;28;20081;-69
2022/11/05 13:38:59;;;;;;;7.88;5.18;;;12.40;74.90;;;;;;5021791;28;20128;-69
2022/11/05 13:41:33;;;;;;;8.75;5.60;;;12.50;75.10;;;;;;5046449;28;20017;-69
2022/11/05 13:44:05;;;;;;;8.52;5.15;;;12.50;75.10;;;;;;5049516;28;20018;-69
2022/11/05 13:46:55;;;;;;;10.15;6.03;;;12.50;75.20;;;;;;5046238;28;20057;-69
2022/11/05 13:49:29;;;;;;;10.00;5.93;;;12.50;75.10;;;;;;5047998;28;20029;-70
2022/11/05 13:52:10;;;;;;;10.15;6.65;;;12.50;75.00;;;;;;5046382;28;20040;-69
2022/11/05 13:55:13;;;;;;;8.43;5.90;;;12.40;74.60;;;;;;5047999;28;20056;-70
2022/11/05 13:58:09;;;;;;;9.05;5.57;;;12.40;75.00;;;;;;5047100;28;20053;-69